Terminal Aerodrome Forecast
Issued by NWS Shreveport, LA

Home | Current Version | Previous Version | Text Only | Print | Product List | Glossary On
Versions: 1 2 3 4 5 6 7 8 9 10 11 12
833
FTUS44 KSHV 122340
TAFTYR
TAF
KTYR 122340Z 1300/1324 03008KT P6SM SKC
     FM131200 07009KT P6SM FEW160
     FM131500 09012KT P6SM SKC=

USA.gov is the U.S. government's official web portal to all federal, state and local government web resources and services.